createdAt,value
2018-10-16T00:01:02.687Z,24.10
2018-10-16T00:03:31.073Z,24.10
2018-10-16T00:05:59.500Z,24.10
2018-10-16T00:08:27.895Z,24.10
2018-10-16T00:10:56.330Z,24.10
2018-10-16T00:13:24.714Z,24.10
2018-10-16T00:15:53.131Z,24.10
2018-10-16T00:18:21.589Z,24.10
2018-10-16T00:20:49.983Z,24.10
2018-10-16T00:23:18.614Z,24.10
2018-10-16T00:25:47.045Z,24.10
2018-10-16T00:28:15.437Z,24.10
2018-10-16T00:30:43.905Z,24.10
2018-10-16T00:33:12.358Z,24.10
2018-10-16T00:35:40.780Z,24.00
2018-10-16T00:38:09.184Z,24.00
2018-10-16T00:40:37.647Z,24.10
2018-10-16T00:43:06.067Z,24.10
2018-10-16T00:45:34.483Z,24.10
2018-10-16T00:48:02.920Z,24.00
2018-10-16T00:50:31.389Z,24.00
2018-10-16T00:52:59.780Z,24.00
2018-10-16T00:55:28.229Z,24.00
2018-10-16T00:57:56.787Z,24.00
2018-10-16T01:00:25.250Z,24.00
2018-10-16T01:02:53.709Z,24.00
2018-10-16T01:05:22.101Z,24.00
2018-10-16T01:07:50.502Z,24.00
2018-10-16T01:10:18.951Z,24.00
2018-10-16T01:12:47.347Z,24.00
2018-10-16T01:15:15.771Z,24.00
2018-10-16T01:17:44.204Z,24.00
2018-10-16T01:20:13.730Z,24.00
2018-10-16T01:22:42.742Z,24.00
2018-10-16T01:25:12.223Z,24.00
2018-10-16T01:27:40.913Z,24.00
2018-10-16T01:30:09.625Z,24.00
2018-10-16T01:32:38.403Z,24.00
2018-10-16T01:35:08.047Z,24.00
2018-10-16T01:37:36.491Z,24.00
2018-10-16T01:40:06.789Z,24.00
2018-10-16T01:42:35.218Z,24.00
2018-10-16T01:45:03.650Z,24.00
2018-10-16T01:47:32.177Z,24.00
2018-10-16T01:50:00.607Z,24.00
2018-10-16T01:52:29.009Z,24.00
2018-10-16T01:54:57.444Z,24.00
2018-10-16T01:57:25.895Z,24.00
2018-10-16T01:59:54.389Z,24.00
2018-10-16T02:02:22.930Z,24.00
2018-10-16T02:04:54.546Z,24.00
2018-10-16T02:07:23.125Z,24.00
2018-10-16T02:09:51.576Z,24.00
2018-10-16T02:12:20.032Z,24.00
2018-10-16T02:14:48.508Z,24.00
2018-10-16T02:17:16.992Z,24.00
2018-10-16T02:19:45.415Z,24.00
2018-10-16T02:22:13.828Z,24.00
2018-10-16T02:24:42.260Z,24.00
2018-10-16T02:27:14.151Z,24.00
2018-10-16T02:29:42.597Z,24.00
2018-10-16T02:32:11.099Z,24.00
2018-10-16T02:34:39.707Z,24.00
2018-10-16T02:37:08.946Z,24.00
2018-10-16T02:39:37.426Z,24.00
2018-10-16T02:42:05.999Z,24.00
2018-10-16T02:44:34.420Z,23.90
2018-10-16T02:47:02.860Z,23.90
2018-10-16T02:49:31.291Z,23.90
2018-10-16T02:51:59.708Z,24.00
2018-10-16T02:54:28.157Z,23.90
2018-10-16T02:56:56.605Z,23.90
2018-10-16T02:59:25.115Z,23.90
2018-10-16T03:01:53.544Z,23.90
2018-10-16T03:04:22.039Z,23.90
2018-10-16T03:06:50.482Z,23.90
2018-10-16T03:09:18.918Z,23.90
2018-10-16T03:11:47.387Z,23.90
2018-10-16T03:14:15.778Z,23.90
2018-10-16T03:16:44.224Z,23.90
2018-10-16T03:19:12.647Z,23.90
2018-10-16T03:21:41.043Z,23.90
2018-10-16T03:24:09.942Z,23.90
2018-10-16T03:26:38.849Z,23.90
2018-10-16T03:29:10.187Z,23.90
2018-10-16T03:31:38.946Z,23.90
2018-10-16T03:34:07.860Z,23.90
2018-10-16T03:36:36.300Z,23.90
2018-10-16T03:39:06.307Z,23.90
2018-10-16T03:41:34.724Z,23.80
2018-10-16T03:44:07.256Z,23.80
2018-10-16T03:46:35.659Z,23.80
2018-10-16T03:49:04.083Z,23.80
2018-10-16T03:51:32.767Z,23.80
2018-10-16T03:54:01.201Z,23.80
2018-10-16T03:56:29.615Z,23.80
2018-10-16T03:58:58.046Z,23.80
2018-10-16T04:01:27.057Z,23.80
2018-10-16T04:03:55.463Z,23.80
2018-10-16T04:06:23.895Z,23.80
2018-10-16T04:08:52.899Z,23.80
2018-10-16T04:11:21.624Z,23.80
2018-10-16T04:13:50.607Z,23.80
2018-10-16T04:16:19.368Z,23.80
2018-10-16T04:18:47.953Z,23.80
2018-10-16T04:21:16.401Z,23.80
2018-10-16T04:23:44.795Z,23.80
2018-10-16T04:26:13.613Z,23.80
2018-10-16T04:28:42.051Z,23.80
2018-10-16T04:31:13.703Z,23.80
2018-10-16T04:33:42.101Z,23.80
2018-10-16T04:36:10.547Z,23.80
2018-10-16T04:38:38.991Z,23.80
2018-10-16T04:41:07.440Z,23.80
2018-10-16T04:43:35.919Z,23.80
2018-10-16T04:46:04.300Z,23.80
2018-10-16T04:48:32.732Z,23.80
2018-10-16T04:51:01.240Z,23.80
2018-10-16T04:53:29.667Z,23.80
2018-10-16T04:55:58.288Z,23.80
2018-10-16T04:58:26.704Z,23.80
2018-10-16T05:00:55.132Z,23.80
2018-10-16T05:03:23.585Z,23.80
2018-10-16T05:05:52.042Z,23.80
2018-10-16T05:08:20.455Z,23.80
2018-10-16T05:10:48.868Z,23.80
2018-10-16T05:13:17.438Z,23.80
2018-10-16T05:15:45.875Z,23.80
2018-10-16T05:18:14.299Z,23.80
2018-10-16T05:20:42.736Z,23.80
2018-10-16T05:23:11.172Z,23.80
2018-10-16T05:25:39.612Z,23.80
2018-10-16T05:28:08.131Z,23.80
2018-10-16T05:30:36.557Z,23.80
2018-10-16T05:33:08.228Z,23.80
2018-10-16T05:35:36.687Z,23.80
2018-10-16T05:38:05.565Z,23.80
2018-10-16T05:40:33.979Z,23.80
2018-10-16T05:43:02.495Z,23.80
2018-10-16T05:45:33.261Z,23.80
2018-10-16T05:48:01.676Z,23.80
2018-10-16T05:50:30.079Z,23.80
2018-10-16T05:52:58.496Z,23.80
2018-10-16T05:55:27.089Z,23.80
2018-10-16T05:57:55.586Z,23.80
2018-10-16T06:00:45.891Z,23.80
2018-10-16T06:03:14.522Z,23.80
2018-10-16T06:05:42.980Z,23.70
2018-10-16T06:08:11.445Z,23.70
2018-10-16T06:10:39.894Z,23.70
2018-10-16T06:13:08.340Z,23.70
2018-10-16T06:15:36.823Z,23.70
2018-10-16T06:18:05.430Z,23.70
2018-10-16T06:20:33.867Z,23.70
2018-10-16T06:23:02.417Z,23.70
2018-10-16T06:25:30.815Z,23.70
2018-10-16T06:27:59.652Z,23.70
2018-10-16T06:30:28.138Z,23.70
2018-10-16T06:32:56.570Z,23.70
2018-10-16T06:35:24.997Z,23.70
2018-10-16T06:37:54.345Z,23.70
2018-10-16T06:40:22.701Z,23.70
2018-10-16T06:42:51.066Z,23.70
2018-10-16T06:45:19.462Z,23.70
2018-10-16T06:47:47.895Z,23.70
2018-10-16T06:50:16.257Z,23.70
2018-10-16T06:52:44.620Z,23.70
2018-10-16T06:55:12.968Z,23.70
2018-10-16T06:57:41.315Z,23.60
2018-10-16T07:00:09.645Z,23.70
2018-10-16T07:02:38.040Z,23.70
2018-10-16T07:05:07.258Z,23.60
2018-10-16T07:07:35.940Z,23.70
2018-10-16T07:10:04.642Z,23.60
2018-10-16T07:12:32.994Z,23.60
2018-10-16T07:15:01.473Z,23.60
2018-10-16T07:17:29.819Z,23.70
2018-10-16T07:19:58.163Z,23.70
2018-10-16T07:22:26.518Z,23.70
2018-10-16T07:24:54.884Z,23.60
2018-10-16T07:27:23.269Z,23.70
2018-10-16T07:29:51.631Z,23.70
2018-10-16T07:32:20.000Z,23.70
2018-10-16T07:34:48.412Z,23.70
2018-10-16T07:37:16.880Z,23.70
2018-10-16T07:39:45.268Z,23.70
2018-10-16T07:42:13.602Z,23.70
2018-10-16T07:44:42.176Z,23.70
2018-10-16T07:47:10.540Z,23.70
2018-10-16T07:49:38.900Z,23.70
2018-10-16T07:52:07.306Z,23.70
2018-10-16T07:54:35.728Z,23.70
2018-10-16T07:57:04.092Z,23.70
2018-10-16T07:59:32.490Z,23.70
2018-10-16T08:02:02.868Z,23.70
2018-10-16T08:04:31.255Z,23.70
2018-10-16T08:06:59.628Z,23.70
2018-10-16T08:09:29.023Z,23.70
2018-10-16T08:11:57.344Z,23.70
2018-10-16T08:14:25.725Z,23.70
2018-10-16T08:16:54.191Z,23.70
2018-10-16T08:19:22.714Z,23.70
2018-10-16T08:21:51.069Z,23.70
2018-10-16T08:24:19.416Z,23.70
2018-10-16T08:26:47.980Z,23.70
2018-10-16T08:29:16.328Z,23.70
2018-10-16T08:31:44.740Z,23.70
2018-10-16T08:34:13.193Z,23.70
2018-10-16T08:36:41.537Z,23.70
2018-10-16T08:39:12.130Z,23.70
2018-10-16T08:41:52.759Z,23.70
2018-10-16T08:44:32.489Z,23.70
2018-10-16T08:47:12.414Z,23.70
2018-10-16T08:49:52.120Z,23.70
2018-10-16T08:52:20.495Z,23.70
2018-10-16T08:54:48.898Z,23.70
2018-10-16T08:57:17.248Z,23.70
2018-10-16T08:59:45.859Z,23.70
2018-10-16T09:02:14.218Z,23.70
2018-10-16T09:04:42.606Z,23.70
2018-10-16T09:07:11.018Z,23.70
2018-10-16T09:09:39.499Z,23.80
2018-10-16T09:12:07.915Z,23.80
2018-10-16T09:14:36.368Z,23.80
2018-10-16T09:17:04.721Z,23.80
2018-10-16T09:19:33.249Z,23.80
2018-10-16T09:22:01.653Z,23.80
2018-10-16T09:24:30.027Z,23.80
2018-10-16T09:26:58.389Z,23.80
2018-10-16T09:29:26.795Z,23.90
2018-10-16T09:31:55.301Z,23.90
2018-10-16T09:34:23.655Z,23.90
2018-10-16T09:36:52.019Z,23.90
2018-10-16T09:39:20.481Z,23.90
2018-10-16T09:41:48.919Z,23.90
2018-10-16T09:44:17.299Z,23.90
2018-10-16T09:46:45.642Z,23.90
2018-10-16T09:49:13.993Z,23.90
2018-10-16T09:51:42.442Z,23.90
2018-10-16T09:54:10.781Z,24.00
2018-10-16T09:56:39.128Z,24.00
2018-10-16T09:59:07.465Z,24.00
2018-10-16T10:01:41.149Z,24.00
2018-10-16T10:04:09.560Z,24.00
2018-10-16T10:06:37.922Z,24.00
2018-10-16T10:09:08.709Z,24.00
2018-10-16T10:11:37.121Z,24.00
2018-10-16T10:14:05.739Z,24.00
2018-10-16T10:16:34.209Z,24.00
2018-10-16T10:19:02.615Z,24.00
2018-10-16T10:21:31.043Z,24.00
2018-10-16T10:23:59.408Z,24.00
2018-10-16T10:26:27.759Z,24.00
2018-10-16T10:28:56.740Z,24.10
2018-10-16T10:31:25.301Z,24.10
2018-10-16T10:33:53.755Z,24.10
2018-10-16T10:36:22.184Z,24.10
2018-10-16T10:38:50.651Z,24.10
2018-10-16T10:41:19.204Z,24.10
2018-10-16T10:43:47.642Z,24.10
2018-10-16T10:46:19.710Z,24.10
2018-10-16T10:48:48.175Z,24.20
2018-10-16T10:51:17.063Z,24.10
2018-10-16T10:53:45.121Z,24.20
2018-10-16T10:56:13.512Z,24.20
2018-10-16T10:58:41.958Z,24.20
2018-10-16T11:01:10.473Z,24.20
2018-10-16T11:03:39.188Z,24.20
2018-10-16T11:06:07.337Z,24.20
2018-10-16T11:08:35.780Z,24.20
2018-10-16T11:11:04.201Z,24.30
2018-10-16T11:13:32.708Z,24.30
2018-10-16T11:16:01.210Z,24.30
2018-10-16T11:18:29.622Z,24.30
2018-10-16T11:20:58.059Z,24.40
2018-10-16T11:23:26.560Z,24.40
2018-10-16T11:25:54.962Z,24.40
2018-10-16T11:28:23.416Z,24.50
2018-10-16T11:30:51.853Z,24.50
2018-10-16T11:33:20.269Z,24.50
2018-10-16T11:35:48.728Z,24.50
2018-10-16T11:38:17.281Z,24.60
2018-10-16T11:40:45.733Z,24.60
2018-10-16T11:43:14.350Z,24.70
2018-10-16T11:45:42.865Z,24.70
2018-10-16T11:48:11.241Z,24.70
2018-10-16T11:50:39.652Z,24.70
2018-10-16T11:53:08.082Z,24.70
2018-10-16T11:55:36.671Z,24.70
2018-10-16T11:58:05.144Z,24.70
2018-10-16T12:00:33.575Z,24.80
2018-10-16T12:03:02.008Z,24.80
2018-10-16T12:05:30.437Z,24.80
2018-10-16T12:07:58.923Z,24.80
2018-10-16T12:10:27.299Z,24.90
2018-10-16T12:12:55.791Z,24.90
2018-10-16T12:15:24.287Z,24.90
2018-10-16T12:18:31.566Z,24.90
2018-10-16T12:21:04.023Z,25.00
2018-10-16T12:23:32.488Z,25.00
2018-10-16T12:26:00.981Z,25.00
2018-10-16T12:28:29.548Z,25.00
2018-10-16T12:30:58.035Z,25.10
2018-10-16T12:33:26.455Z,25.10
2018-10-16T12:35:54.943Z,25.10
2018-10-16T12:38:23.501Z,25.10
2018-10-16T12:40:51.926Z,25.10
2018-10-16T12:43:20.599Z,25.20
2018-10-16T12:45:49.052Z,25.20
2018-10-16T12:48:17.488Z,25.20
2018-10-16T12:50:46.074Z,25.20
2018-10-16T12:53:14.596Z,25.20
2018-10-16T12:55:43.087Z,25.20
2018-10-16T12:58:11.528Z,25.30
2018-10-16T13:00:39.984Z,25.30
2018-10-16T13:03:08.469Z,25.30
2018-10-16T13:05:36.996Z,25.30
2018-10-16T13:08:05.526Z,25.30
2018-10-16T13:10:33.973Z,25.40
2018-10-16T13:13:02.557Z,25.40
2018-10-16T13:15:31.023Z,25.40
2018-10-16T13:17:59.459Z,25.40
2018-10-16T13:20:27.957Z,25.40
2018-10-16T13:22:56.481Z,25.40
2018-10-16T13:25:24.905Z,25.40
2018-10-16T13:27:53.431Z,25.40
2018-10-16T13:30:21.845Z,25.40
2018-10-16T13:32:51.154Z,25.50
2018-10-16T13:35:20.455Z,25.50
2018-10-16T13:37:49.349Z,25.50
2018-10-16T13:40:17.757Z,25.50
2018-10-16T13:42:46.296Z,25.50
2018-10-16T13:45:16.020Z,25.50
2018-10-16T13:47:44.461Z,25.50
2018-10-16T13:50:14.161Z,25.50
2018-10-16T13:52:42.912Z,25.60
2018-10-16T13:55:12.021Z,25.50
2018-10-16T13:57:40.695Z,25.50
2018-10-16T14:00:17.475Z,25.50
2018-10-16T14:02:47.090Z,25.50
2018-10-16T14:05:15.555Z,25.50
2018-10-16T14:07:44.136Z,25.50
2018-10-16T14:10:13.606Z,25.50
2018-10-16T14:12:43.041Z,25.50
2018-10-16T14:15:12.051Z,25.50
2018-10-16T14:17:40.594Z,25.50
2018-10-16T14:20:09.811Z,25.50
2018-10-16T14:22:39.490Z,25.50
2018-10-16T14:25:10.122Z,25.50
2018-10-16T14:27:39.001Z,25.50
2018-10-16T14:30:08.700Z,25.50
2018-10-16T14:32:37.330Z,25.50
2018-10-16T14:35:06.409Z,25.50
2018-10-16T14:37:34.824Z,25.50
2018-10-16T14:40:03.368Z,25.50
2018-10-16T14:42:35.063Z,25.50
2018-10-16T14:45:03.508Z,25.50
2018-10-16T14:47:35.980Z,25.50
2018-10-16T14:50:04.811Z,25.60
2018-10-16T14:52:33.439Z,25.60
2018-10-16T14:55:01.873Z,25.60
2018-10-16T14:57:30.429Z,25.60
2018-10-16T14:59:59.010Z,25.60
2018-10-16T15:02:27.428Z,25.60
2018-10-16T15:04:56.013Z,25.60
2018-10-16T15:07:24.499Z,25.60
2018-10-16T15:09:52.979Z,25.60
2018-10-16T15:12:26.909Z,25.60
2018-10-16T15:14:55.357Z,25.60
2018-10-16T15:17:23.705Z,25.60
2018-10-16T15:19:52.044Z,25.60
2018-10-16T15:22:20.569Z,25.60
2018-10-16T15:24:48.888Z,25.50
2018-10-16T15:27:17.540Z,25.50
2018-10-16T15:29:46.113Z,25.50
2018-10-16T15:32:14.719Z,25.50
2018-10-16T15:34:42.980Z,25.50
2018-10-16T15:37:11.378Z,25.60
2018-10-16T15:39:39.732Z,25.60
2018-10-16T15:42:08.130Z,25.60
2018-10-16T15:44:36.453Z,25.60
2018-10-16T15:47:04.761Z,25.60
2018-10-16T15:49:34.312Z,25.60
2018-10-16T15:52:02.774Z,25.60
2018-10-16T15:54:31.054Z,25.60
2018-10-16T15:56:59.432Z,25.60
2018-10-16T15:59:28.208Z,25.60
2018-10-16T16:01:59.735Z,25.50
2018-10-16T16:04:28.115Z,25.50
2018-10-16T16:06:56.473Z,25.50
2018-10-16T16:09:25.340Z,25.50
2018-10-16T16:11:53.792Z,25.50
2018-10-16T16:14:22.156Z,25.50
2018-10-16T16:16:50.493Z,25.40
2018-10-16T16:19:18.851Z,25.50
2018-10-16T16:21:47.291Z,25.40
2018-10-16T16:24:19.051Z,25.40
2018-10-16T16:26:47.469Z,25.40
2018-10-16T16:29:15.934Z,25.40
2018-10-16T16:31:44.414Z,25.40
2018-10-16T16:34:12.844Z,25.40
2018-10-16T16:36:41.378Z,25.30
2018-10-16T16:39:12.185Z,25.40
2018-10-16T16:41:40.751Z,25.30
2018-10-16T16:44:09.267Z,25.30
2018-10-16T16:46:37.892Z,25.30
2018-10-16T16:49:06.490Z,25.30
2018-10-16T16:51:38.115Z,25.30
2018-10-16T16:54:06.767Z,25.20
2018-10-16T16:56:35.219Z,25.20
2018-10-16T16:59:03.746Z,25.20
2018-10-16T17:01:32.158Z,25.20
2018-10-16T17:04:00.628Z,25.20
2018-10-16T17:06:29.101Z,25.20
2018-10-16T17:08:57.532Z,25.20
2018-10-16T17:11:25.970Z,25.20
2018-10-16T17:13:54.446Z,25.20
2018-10-16T17:16:22.854Z,25.20
2018-10-16T17:18:51.300Z,25.10
2018-10-16T17:21:19.700Z,25.20
2018-10-16T17:23:48.115Z,25.20
2018-10-16T17:26:16.826Z,25.20
2018-10-16T17:28:45.047Z,25.20
2018-10-16T17:31:13.470Z,25.20
2018-10-16T17:33:41.889Z,25.20
2018-10-16T17:36:10.452Z,25.20
2018-10-16T17:38:38.865Z,25.20
2018-10-16T17:41:07.360Z,25.30
2018-10-16T17:43:35.769Z,25.30
2018-10-16T17:46:04.412Z,25.30
2018-10-16T17:48:32.822Z,25.30
2018-10-16T17:51:01.295Z,25.20
2018-10-16T17:53:29.940Z,25.30
2018-10-16T17:55:58.356Z,25.20
2018-10-16T17:58:26.810Z,25.20
2018-10-16T18:00:55.249Z,25.20
2018-10-16T18:03:23.632Z,25.30
2018-10-16T18:05:52.071Z,25.20
2018-10-16T18:08:20.489Z,25.20
2018-10-16T18:10:48.908Z,25.20
2018-10-16T18:13:17.311Z,25.20
2018-10-16T18:15:45.707Z,25.20
2018-10-16T18:18:14.203Z,25.20
2018-10-16T18:20:42.675Z,25.20
2018-10-16T18:23:11.097Z,25.10
2018-10-16T18:25:39.559Z,25.10
2018-10-16T18:28:07.973Z,25.10
2018-10-16T18:30:36.379Z,25.10
2018-10-16T18:33:04.812Z,25.10
2018-10-16T18:35:33.303Z,25.10
2018-10-16T18:38:01.718Z,25.10
2018-10-16T18:40:30.235Z,25.10
2018-10-16T18:42:58.658Z,25.10
2018-10-16T18:45:27.100Z,25.10
2018-10-16T18:47:55.669Z,25.10
2018-10-16T18:50:24.538Z,25.10
2018-10-16T18:52:52.907Z,25.10
2018-10-16T18:55:21.951Z,25.10
2018-10-16T18:57:50.440Z,25.10
2018-10-16T19:00:19.784Z,25.10
2018-10-16T19:04:17.419Z,25.10
2018-10-16T19:06:45.816Z,25.10
2018-10-16T19:09:14.267Z,25.10
2018-10-16T19:11:43.288Z,25.00
2018-10-16T19:14:11.722Z,25.00
2018-10-16T19:16:40.350Z,25.00
2018-10-16T19:19:08.730Z,25.00
2018-10-16T19:21:37.157Z,25.00
2018-10-16T19:24:05.785Z,25.00
2018-10-16T19:26:34.228Z,25.00
2018-10-16T19:29:02.702Z,25.00
2018-10-16T19:31:31.113Z,25.00
2018-10-16T19:33:59.545Z,24.90
2018-10-16T19:36:28.079Z,24.90
2018-10-16T19:38:56.418Z,25.00
2018-10-16T19:41:24.847Z,24.90
2018-10-16T19:43:54.239Z,24.90
2018-10-16T19:46:22.642Z,24.90
2018-10-16T19:48:51.166Z,24.90
2018-10-16T19:51:19.569Z,24.90
2018-10-16T19:53:48.054Z,24.90
2018-10-16T19:56:16.585Z,24.90
2018-10-16T19:58:44.962Z,24.90
2018-10-16T20:01:14.250Z,24.90
2018-10-16T20:03:43.027Z,24.90
2018-10-16T20:06:12.140Z,24.90
2018-10-16T20:08:41.311Z,24.90
2018-10-16T20:11:09.731Z,24.90
2018-10-16T20:13:38.991Z,24.90
2018-10-16T20:16:07.904Z,24.90
2018-10-16T20:18:36.307Z,24.90
2018-10-16T20:21:04.875Z,24.90
2018-10-16T20:23:33.327Z,24.90
2018-10-16T20:26:01.846Z,24.90
2018-10-16T20:28:30.402Z,24.80
2018-10-16T20:30:58.892Z,24.80
2018-10-16T20:33:27.774Z,24.80
2018-10-16T20:35:56.170Z,24.80
2018-10-16T20:38:24.593Z,24.80
2018-10-16T20:40:53.026Z,24.80
2018-10-16T20:43:21.442Z,24.80
2018-10-16T20:45:49.885Z,24.70
2018-10-16T20:48:18.346Z,24.70
2018-10-16T20:50:46.693Z,24.70
2018-10-16T20:53:15.109Z,24.70
2018-10-16T20:55:43.560Z,24.70
2018-10-16T20:58:12.015Z,24.70
2018-10-16T21:00:40.807Z,24.70
2018-10-16T21:03:09.176Z,24.70
2018-10-16T21:05:37.622Z,24.70
2018-10-16T21:08:05.921Z,24.70
2018-10-16T21:10:34.310Z,24.70
2018-10-16T21:13:02.741Z,24.60
2018-10-16T21:15:31.105Z,24.60
2018-10-16T21:17:59.561Z,24.60
2018-10-16T21:20:27.983Z,24.60
2018-10-16T21:22:56.429Z,24.60
2018-10-16T21:25:24.792Z,24.60
2018-10-16T21:27:53.191Z,24.60
2018-10-16T21:30:21.570Z,24.60
2018-10-16T21:32:49.998Z,24.60
2018-10-16T21:35:18.469Z,24.60
2018-10-16T21:37:46.822Z,24.60
2018-10-16T21:40:15.153Z,24.60
2018-10-16T21:42:43.559Z,24.60
2018-10-16T21:45:11.973Z,24.50
2018-10-16T21:47:40.338Z,24.50
2018-10-16T21:50:08.713Z,24.50
2018-10-16T21:52:37.080Z,24.50
2018-10-16T21:55:06.151Z,24.50
2018-10-16T21:57:34.552Z,24.50
2018-10-16T22:00:02.989Z,24.50
2018-10-16T22:02:36.790Z,24.50
2018-10-16T22:05:05.227Z,24.50
2018-10-16T22:07:33.668Z,24.50
2018-10-16T22:10:02.023Z,24.50
2018-10-16T22:12:30.528Z,24.50
2018-10-16T22:14:58.889Z,24.50
2018-10-16T22:17:27.269Z,24.50
2018-10-16T22:19:55.617Z,24.50
2018-10-16T22:22:23.996Z,24.50
2018-10-16T22:24:52.416Z,24.40
2018-10-16T22:27:20.740Z,24.40
2018-10-16T22:29:49.108Z,24.40
2018-10-16T22:32:17.805Z,24.40
2018-10-16T22:34:46.285Z,24.40
2018-10-16T22:37:14.696Z,24.40
2018-10-16T22:39:43.047Z,24.40
2018-10-16T22:42:11.452Z,24.40
2018-10-16T22:44:39.929Z,24.40
2018-10-16T22:47:08.670Z,24.40
2018-10-16T22:49:37.128Z,24.40
2018-10-16T22:52:05.597Z,24.30
2018-10-16T22:54:34.047Z,24.30
2018-10-16T22:57:02.442Z,24.30
2018-10-16T22:59:30.899Z,24.30
2018-10-16T23:01:59.639Z,24.30
2018-10-16T23:04:28.074Z,24.30
2018-10-16T23:07:00.187Z,24.30
2018-10-16T23:09:28.629Z,24.30
2018-10-16T23:11:57.264Z,24.30
2018-10-16T23:14:25.670Z,24.30
2018-10-16T23:16:54.206Z,24.30
2018-10-16T23:19:22.580Z,24.30
2018-10-16T23:21:51.023Z,24.30
2018-10-16T23:24:19.431Z,24.30
2018-10-16T23:26:47.873Z,24.30
2018-10-16T23:29:16.307Z,24.30
2018-10-16T23:31:44.757Z,24.30
2018-10-16T23:34:13.178Z,24.30
2018-10-16T23:36:41.648Z,24.30
2018-10-16T23:39:11.946Z,24.20
2018-10-16T23:41:41.240Z,24.20
2018-10-16T23:44:09.955Z,24.20
2018-10-16T23:46:38.736Z,24.20
2018-10-16T23:49:08.231Z,24.20
2018-10-16T23:51:36.836Z,24.20
2018-10-16T23:54:05.555Z,24.20
2018-10-16T23:56:33.951Z,24.20
2018-10-16T23:59:02.781Z,24.20
